Marion, VA (24354)

5:07 PM EDT on August 23, 2016 (GMT -0400)
The Bank of Marion | | Change Station

Elev 2182 ft 36.83 °N, 81.52 °W | Updated 2 seconds ago

Scattered Clouds
Scattered Clouds
80.6 °F
Feels Like 82 °F
N
2.0
Wind Variable Wind from SSE
Gusts 6.0 mph

Today
High -- | Low -- °F
--% Chance of Precip.
Yesterday
High -- | Low -- °F
Precip. -- in
Pressure 30.35 in
Visibility 10.0 miles
Clouds Scattered Clouds 6000 ft
Heat Index 82 °F
Dew Point 63 °F
Humidity 55%
Rainfall 0.00 in
Snow Depth Not available.
6:50 AM 8:06 PM
Waning Gibbous, 64% visible
METAR KMKJ 232055Z AUTO 18003KT 10SM SCT060 28/16 A3035 RMK AO2 T02760158
Pressure 30.35 in
Visibility 10.0 miles
Clouds Scattered Clouds 6000 ft
Heat Index 82 °F
Dew Point 63 °F
Humidity 55%
Rainfall 0.00 in
Snow Depth Not available.
6:50 AM 8:06 PM
Waning Gibbous, 64% visible
METAR KMKJ 232055Z AUTO 18003KT 10SM SCT060 28/16 A3035 RMK AO2 T02760158

10-Day Weather Forecast

Almanac

Astronomy

Aug. 23, 2016 Rise Set
Actual Time
Civil Twilight
Nautical Twilight
Astronomical Twilight
Moon
Length of Visible Light
Length of Day
Tomorrow will be .
, % of the Moon is Illuminated

Today's Extremes

State Highs State Lows

Community

WunderPhotos

Upload Photos

1,934,455 photos uploaded!

WunderBlog® & News

Nearby

Air Quality

  Air Quality AQ Index Pollutant
Not available.

Snow Depth

Station Depth Elevation

Earthquake Activity

City Distance Mag. Time & Date
Minimum magnitude displayed is 2.5.

Coastal Water Temperatures

Place Temperature

Stations

Nearby Weather Stations

Station Location Temp. Windchill Dew Point Humidity Wind Precip. Elev Updated Type
                   

Watches & Warnings

There are currently no watches in effect.